sensor_id;sensor_type;location;lat;lon;timestamp;temperature;humidity
34135;DHT22;20410;55.578;12.968;2023-05-14T00:01:15;14.50;99.90
34135;DHT22;20410;55.578;12.968;2023-05-14T00:03:40;14.50;99.90
34135;DHT22;20410;55.578;12.968;2023-05-14T00:06:06;14.50;99.90
34135;DHT22;20410;55.578;12.968;2023-05-14T00:08:33;14.50;99.90
34135;DHT22;20410;55.578;12.968;2023-05-14T00:10:59;14.50;99.90
34135;DHT22;20410;55.578;12.968;2023-05-14T00:13:25;14.50;99.90
34135;DHT22;20410;55.578;12.968;2023-05-14T00:15:50;14.50;99.90
34135;DHT22;20410;55.578;12.968;2023-05-14T00:18:16;14.40;99.90
34135;DHT22;20410;55.578;12.968;2023-05-14T00:20:42;14.40;99.90
34135;DHT22;20410;55.578;12.968;2023-05-14T00:23:08;14.40;99.90
34135;DHT22;20410;55.578;12.968;2023-05-14T00:25:33;14.40;99.90
34135;DHT22;20410;55.578;12.968;2023-05-14T00:27:59;14.40;99.90
34135;DHT22;20410;55.578;12.968;2023-05-14T00:30:24;14.40;99.90
34135;DHT22;20410;55.578;12.968;2023-05-14T00:32:50;14.40;99.90
34135;DHT22;20410;55.578;12.968;2023-05-14T00:35:15;14.30;99.90
34135;DHT22;20410;55.578;12.968;2023-05-14T00:37:41;14.20;99.90
34135;DHT22;20410;55.578;12.968;2023-05-14T00:40:07;14.20;1.00
34135;DHT22;20410;55.578;12.968;2023-05-14T00:42:33;14.10;1.00
34135;DHT22;20410;55.578;12.968;2023-05-14T00:44:59;14.00;1.00
34135;DHT22;20410;55.578;12.968;2023-05-14T00:47:25;14.00;1.00
34135;DHT22;20410;55.578;12.968;2023-05-14T00:49:51;13.90;1.00
34135;DHT22;20410;55.578;12.968;2023-05-14T00:52:17;13.90;1.00
34135;DHT22;20410;55.578;12.968;2023-05-14T00:54:44;13.90;1.00
34135;DHT22;20410;55.578;12.968;2023-05-14T00:57:11;13.90;1.00
34135;DHT22;20410;55.578;12.968;2023-05-14T00:59:36;14.00;1.00
34135;DHT22;20410;55.578;12.968;2023-05-14T01:02:05;14.00;1.00
34135;DHT22;20410;55.578;12.968;2023-05-14T01:04:30;14.00;1.00
34135;DHT22;20410;55.578;12.968;2023-05-14T01:15:11;14.00;1.00
34135;DHT22;20410;55.578;12.968;2023-05-14T01:17:47;14.10;1.00
34135;DHT22;20410;55.578;12.968;2023-05-14T01:20:15;14.10;1.00
34135;DHT22;20410;55.578;12.968;2023-05-14T01:22:40;14.10;1.00
34135;DHT22;20410;55.578;12.968;2023-05-14T01:25:07;14.00;1.00
34135;DHT22;20410;55.578;12.968;2023-05-14T01:27:48;14.10;1.00
34135;DHT22;20410;55.578;12.968;2023-05-14T01:30:36;14.10;1.00
34135;DHT22;20410;55.578;12.968;2023-05-14T01:33:05;14.10;1.00
34135;DHT22;20410;55.578;12.968;2023-05-14T01:35:31;14.10;1.00
34135;DHT22;20410;55.578;12.968;2023-05-14T01:38:00;14.10;1.00
34135;DHT22;20410;55.578;12.968;2023-05-14T01:40:26;14.00;1.00
34135;DHT22;20410;55.578;12.968;2023-05-14T01:42:52;14.00;1.00
34135;DHT22;20410;55.578;12.968;2023-05-14T01:45:22;14.00;1.00
34135;DHT22;20410;55.578;12.968;2023-05-14T01:47:48;14.00;1.00
34135;DHT22;20410;55.578;12.968;2023-05-14T01:50:13;14.00;1.00
34135;DHT22;20410;55.578;12.968;2023-05-14T01:52:39;13.90;1.00
34135;DHT22;20410;55.578;12.968;2023-05-14T01:55:05;13.90;1.00
34135;DHT22;20410;55.578;12.968;2023-05-14T01:57:31;13.90;1.00
34135;DHT22;20410;55.578;12.968;2023-05-14T01:59:56;13.90;1.00
34135;DHT22;20410;55.578;12.968;2023-05-14T02:02:22;13.90;1.00
34135;DHT22;20410;55.578;12.968;2023-05-14T02:04:49;14.00;1.00
34135;DHT22;20410;55.578;12.968;2023-05-14T02:07:15;13.90;1.00
34135;DHT22;20410;55.578;12.968;2023-05-14T02:09:40;13.80;1.00
34135;DHT22;20410;55.578;12.968;2023-05-14T02:12:07;13.80;1.00
34135;DHT22;20410;55.578;12.968;2023-05-14T02:14:33;13.80;1.00
34135;DHT22;20410;55.578;12.968;2023-05-14T02:16:59;13.90;1.00
34135;DHT22;20410;55.578;12.968;2023-05-14T02:19:24;13.90;1.00
34135;DHT22;20410;55.578;12.968;2023-05-14T02:21:50;13.90;1.00
34135;DHT22;20410;55.578;12.968;2023-05-14T02:24:15;14.00;1.00
34135;DHT22;20410;55.578;12.968;2023-05-14T02:26:41;13.90;1.00
34135;DHT22;20410;55.578;12.968;2023-05-14T02:29:07;13.90;1.00
34135;DHT22;20410;55.578;12.968;2023-05-14T02:31:33;13.90;1.00
34135;DHT22;20410;55.578;12.968;2023-05-14T02:34:00;13.80;1.00
34135;DHT22;20410;55.578;12.968;2023-05-14T02:36:26;13.90;1.00
34135;DHT22;20410;55.578;12.968;2023-05-14T02:38:52;13.90;1.00
34135;DHT22;20410;55.578;12.968;2023-05-14T02:41:17;13.90;1.00
34135;DHT22;20410;55.578;12.968;2023-05-14T02:43:43;13.90;1.00
34135;DHT22;20410;55.578;12.968;2023-05-14T02:46:08;13.90;1.00
34135;DHT22;20410;55.578;12.968;2023-05-14T02:48:34;14.00;1.00
34135;DHT22;20410;55.578;12.968;2023-05-14T02:51:00;14.00;1.00
34135;DHT22;20410;55.578;12.968;2023-05-14T02:53:25;14.00;1.00
34135;DHT22;20410;55.578;12.968;2023-05-14T02:55:51;14.00;1.00
34135;DHT22;20410;55.578;12.968;2023-05-14T02:58:16;14.00;1.00
34135;DHT22;20410;55.578;12.968;2023-05-14T03:00:43;14.00;1.00
34135;DHT22;20410;55.578;12.968;2023-05-14T03:03:09;14.10;1.00
34135;DHT22;20410;55.578;12.968;2023-05-14T03:05:34;14.20;1.00
34135;DHT22;20410;55.578;12.968;2023-05-14T03:08:00;14.30;1.00
34135;DHT22;20410;55.578;12.968;2023-05-14T03:10:26;14.30;1.00
34135;DHT22;20410;55.578;12.968;2023-05-14T03:12:51;14.30;1.00
34135;DHT22;20410;55.578;12.968;2023-05-14T03:15:17;14.20;1.00
34135;DHT22;20410;55.578;12.968;2023-05-14T03:17:42;14.30;1.00
34135;DHT22;20410;55.578;12.968;2023-05-14T03:20:08;14.40;1.00
34135;DHT22;20410;55.578;12.968;2023-05-14T03:22:35;14.40;1.00
34135;DHT22;20410;55.578;12.968;2023-05-14T03:25:00;14.50;1.00
34135;DHT22;20410;55.578;12.968;2023-05-14T03:27:26;14.60;1.00
34135;DHT22;20410;55.578;12.968;2023-05-14T03:29:51;14.60;1.00
34135;DHT22;20410;55.578;12.968;2023-05-14T03:32:17;14.70;1.00
34135;DHT22;20410;55.578;12.968;2023-05-14T03:34:43;14.80;1.00
34135;DHT22;20410;55.578;12.968;2023-05-14T03:37:09;14.90;1.00
34135;DHT22;20410;55.578;12.968;2023-05-14T03:39:35;14.90;1.00
34135;DHT22;20410;55.578;12.968;2023-05-14T03:42:01;14.90;1.00
34135;DHT22;20410;55.578;12.968;2023-05-14T03:44:26;14.90;1.00
34135;DHT22;20410;55.578;12.968;2023-05-14T03:46:52;15.00;1.00
34135;DHT22;20410;55.578;12.968;2023-05-14T03:49:17;15.00;1.00
34135;DHT22;20410;55.578;12.968;2023-05-14T03:51:43;15.10;1.00
34135;DHT22;20410;55.578;12.968;2023-05-14T03:54:09;15.10;1.00
34135;DHT22;20410;55.578;12.968;2023-05-14T03:56:35;15.20;1.00
34135;DHT22;20410;55.578;12.968;2023-05-14T03:59:01;15.20;1.00
34135;DHT22;20410;55.578;12.968;2023-05-14T04:01:26;15.30;1.00
34135;DHT22;20410;55.578;12.968;2023-05-14T04:03:52;15.30;1.00
34135;DHT22;20410;55.578;12.968;2023-05-14T04:06:18;15.30;1.00
34135;DHT22;20410;55.578;12.968;2023-05-14T04:08:43;15.30;1.00
34135;DHT22;20410;55.578;12.968;2023-05-14T04:11:09;15.30;1.00
34135;DHT22;20410;55.578;12.968;2023-05-14T04:13:35;15.30;1.00
34135;DHT22;20410;55.578;12.968;2023-05-14T04:16:00;15.30;1.00
34135;DHT22;20410;55.578;12.968;2023-05-14T04:18:26;15.30;1.00
34135;DHT22;20410;55.578;12.968;2023-05-14T04:20:51;15.50;1.00
34135;DHT22;20410;55.578;12.968;2023-05-14T04:23:17;15.60;1.00
34135;DHT22;20410;55.578;12.968;2023-05-14T04:25:42;15.80;1.00
34135;DHT22;20410;55.578;12.968;2023-05-14T04:28:08;16.00;1.00
34135;DHT22;20410;55.578;12.968;2023-05-14T04:30:34;16.10;1.00
34135;DHT22;20410;55.578;12.968;2023-05-14T04:32:59;16.30;1.00
34135;DHT22;20410;55.578;12.968;2023-05-14T04:35:25;16.40;1.00
34135;DHT22;20410;55.578;12.968;2023-05-14T04:37:51;16.50;1.00
34135;DHT22;20410;55.578;12.968;2023-05-14T04:40:16;16.70;1.00
34135;DHT22;20410;55.578;12.968;2023-05-14T04:42:43;16.80;1.00
34135;DHT22;20410;55.578;12.968;2023-05-14T04:45:09;16.90;1.00
34135;DHT22;20410;55.578;12.968;2023-05-14T04:47:35;17.10;1.00
34135;DHT22;20410;55.578;12.968;2023-05-14T04:50:01;17.20;1.00
34135;DHT22;20410;55.578;12.968;2023-05-14T04:52:26;17.30;1.00
34135;DHT22;20410;55.578;12.968;2023-05-14T04:54:52;17.50;1.00
34135;DHT22;20410;55.578;12.968;2023-05-14T04:57:18;17.60;1.00
34135;DHT22;20410;55.578;12.968;2023-05-14T04:59:43;17.70;1.00
34135;DHT22;20410;55.578;12.968;2023-05-14T05:02:09;17.80;1.00
34135;DHT22;20410;55.578;12.968;2023-05-14T05:04:34;17.90;1.00
34135;DHT22;20410;55.578;12.968;2023-05-14T05:07:00;18.00;1.00
34135;DHT22;20410;55.578;12.968;2023-05-14T05:09:26;18.00;1.00
34135;DHT22;20410;55.578;12.968;2023-05-14T05:11:52;18.00;1.00
34135;DHT22;20410;55.578;12.968;2023-05-14T05:14:17;18.00;1.00
34135;DHT22;20410;55.578;12.968;2023-05-14T05:16:43;18.00;1.00
34135;DHT22;20410;55.578;12.968;2023-05-14T05:19:09;18.10;1.00
34135;DHT22;20410;55.578;12.968;2023-05-14T05:21:35;18.10;1.00
34135;DHT22;20410;55.578;12.968;2023-05-14T05:24:00;18.20;1.00
34135;DHT22;20410;55.578;12.968;2023-05-14T05:26:26;18.10;1.00
34135;DHT22;20410;55.578;12.968;2023-05-14T05:28:52;18.10;1.00
34135;DHT22;20410;55.578;12.968;2023-05-14T05:31:17;18.10;1.00
34135;DHT22;20410;55.578;12.968;2023-05-14T05:33:43;18.10;1.00
34135;DHT22;20410;55.578;12.968;2023-05-14T05:36:09;18.10;1.00
34135;DHT22;20410;55.578;12.968;2023-05-14T05:38:34;18.10;1.00
34135;DHT22;20410;55.578;12.968;2023-05-14T05:41:00;17.90;1.00
34135;DHT22;20410;55.578;12.968;2023-05-14T05:43:26;17.80;1.00
34135;DHT22;20410;55.578;12.968;2023-05-14T05:45:53;17.80;1.00
34135;DHT22;20410;55.578;12.968;2023-05-14T05:48:18;17.80;1.00
34135;DHT22;20410;55.578;12.968;2023-05-14T05:50:46;17.80;1.00
34135;DHT22;20410;55.578;12.968;2023-05-14T05:53:13;18.00;1.00
34135;DHT22;20410;55.578;12.968;2023-05-14T05:55:41;18.00;1.00
34135;DHT22;20410;55.578;12.968;2023-05-14T05:58:06;17.90;1.00
34135;DHT22;20410;55.578;12.968;2023-05-14T06:00:32;18.00;1.00
34135;DHT22;20410;55.578;12.968;2023-05-14T06:02:58;18.10;1.00
34135;DHT22;20410;55.578;12.968;2023-05-14T06:05:24;18.30;1.00
34135;DHT22;20410;55.578;12.968;2023-05-14T06:07:49;18.50;1.00
34135;DHT22;20410;55.578;12.968;2023-05-14T06:10:15;18.70;1.00
34135;DHT22;20410;55.578;12.968;2023-05-14T06:12:41;18.90;1.00
34135;DHT22;20410;55.578;12.968;2023-05-14T06:15:07;19.20;99.90
34135;DHT22;20410;55.578;12.968;2023-05-14T06:17:32;19.30;99.90
34135;DHT22;20410;55.578;12.968;2023-05-14T06:19:58;19.50;99.90
34135;DHT22;20410;55.578;12.968;2023-05-14T06:22:23;19.60;99.90
34135;DHT22;20410;55.578;12.968;2023-05-14T06:24:49;19.70;99.90
34135;DHT22;20410;55.578;12.968;2023-05-14T06:27:15;19.70;99.90
34135;DHT22;20410;55.578;12.968;2023-05-14T06:29:40;19.80;99.90
34135;DHT22;20410;55.578;12.968;2023-05-14T06:32:06;19.90;99.90
34135;DHT22;20410;55.578;12.968;2023-05-14T06:34:32;20.00;99.90
34135;DHT22;20410;55.578;12.968;2023-05-14T06:36:57;20.10;99.90
34135;DHT22;20410;55.578;12.968;2023-05-14T06:39:23;20.20;99.90
34135;DHT22;20410;55.578;12.968;2023-05-14T06:41:49;20.30;99.90
34135;DHT22;20410;55.578;12.968;2023-05-14T06:44:17;20.30;99.90
34135;DHT22;20410;55.578;12.968;2023-05-14T06:46:43;20.40;99.90
34135;DHT22;20410;55.578;12.968;2023-05-14T06:49:09;20.40;99.90
34135;DHT22;20410;55.578;12.968;2023-05-14T06:51:34;20.50;99.90
34135;DHT22;20410;55.578;12.968;2023-05-14T06:54:00;20.60;99.90
34135;DHT22;20410;55.578;12.968;2023-05-14T06:56:26;20.50;99.90
34135;DHT22;20410;55.578;12.968;2023-05-14T06:58:51;20.60;99.90
34135;DHT22;20410;55.578;12.968;2023-05-14T07:01:17;20.60;99.90
34135;DHT22;20410;55.578;12.968;2023-05-14T07:03:42;20.70;99.90
34135;DHT22;20410;55.578;12.968;2023-05-14T07:06:08;20.60;99.90
34135;DHT22;20410;55.578;12.968;2023-05-14T07:08:33;20.70;99.90
34135;DHT22;20410;55.578;12.968;2023-05-14T07:10:59;20.90;99.90
34135;DHT22;20410;55.578;12.968;2023-05-14T07:13:25;21.20;99.90
34135;DHT22;20410;55.578;12.968;2023-05-14T07:15:51;21.30;99.90
34135;DHT22;20410;55.578;12.968;2023-05-14T07:18:17;21.40;99.90
34135;DHT22;20410;55.578;12.968;2023-05-14T07:20:43;21.40;99.90
34135;DHT22;20410;55.578;12.968;2023-05-14T07:23:08;21.40;99.90
34135;DHT22;20410;55.578;12.968;2023-05-14T07:25:34;21.20;99.90
34135;DHT22;20410;55.578;12.968;2023-05-14T07:27:59;21.20;99.90
34135;DHT22;20410;55.578;12.968;2023-05-14T07:30:25;21.50;99.90
34135;DHT22;20410;55.578;12.968;2023-05-14T07:32:50;21.70;99.90
34135;DHT22;20410;55.578;12.968;2023-05-14T07:35:16;21.70;99.90
34135;DHT22;20410;55.578;12.968;2023-05-14T07:37:42;21.70;99.90
34135;DHT22;20410;55.578;12.968;2023-05-14T07:40:08;21.80;99.90
34135;DHT22;20410;55.578;12.968;2023-05-14T07:42:34;21.90;99.90
34135;DHT22;20410;55.578;12.968;2023-05-14T07:44:59;21.90;99.90
34135;DHT22;20410;55.578;12.968;2023-05-14T07:47:25;22.00;99.90
34135;DHT22;20410;55.578;12.968;2023-05-14T07:49:58;22.10;99.90
34135;DHT22;20410;55.578;12.968;2023-05-14T07:52:24;22.40;99.90
34135;DHT22;20410;55.578;12.968;2023-05-14T07:54:50;22.40;99.90
34135;DHT22;20410;55.578;12.968;2023-05-14T07:57:16;22.70;99.90
34135;DHT22;20410;55.578;12.968;2023-05-14T07:59:42;22.90;99.90
34135;DHT22;20410;55.578;12.968;2023-05-14T08:02:08;22.80;99.90
34135;DHT22;20410;55.578;12.968;2023-05-14T08:04:37;22.50;99.90
34135;DHT22;20410;55.578;12.968;2023-05-14T08:07:04;22.40;99.90
34135;DHT22;20410;55.578;12.968;2023-05-14T08:09:29;22.30;99.90
34135;DHT22;20410;55.578;12.968;2023-05-14T08:11:55;22.20;99.90
34135;DHT22;20410;55.578;12.968;2023-05-14T08:14:21;21.90;99.90
34135;DHT22;20410;55.578;12.968;2023-05-14T08:16:46;21.80;99.90
34135;DHT22;20410;55.578;12.968;2023-05-14T08:19:13;21.70;99.90
34135;DHT22;20410;55.578;12.968;2023-05-14T08:21:39;21.60;99.90
34135;DHT22;20410;55.578;12.968;2023-05-14T08:24:04;21.50;99.90
34135;DHT22;20410;55.578;12.968;2023-05-14T08:26:30;21.50;99.90
34135;DHT22;20410;55.578;12.968;2023-05-14T08:28:56;21.30;99.90
34135;DHT22;20410;55.578;12.968;2023-05-14T08:31:22;21.30;99.90
34135;DHT22;20410;55.578;12.968;2023-05-14T08:33:47;21.30;99.90
34135;DHT22;20410;55.578;12.968;2023-05-14T08:36:13;21.40;99.90
34135;DHT22;20410;55.578;12.968;2023-05-14T08:38:39;21.50;99.90
34135;DHT22;20410;55.578;12.968;2023-05-14T08:41:05;21.50;99.90
34135;DHT22;20410;55.578;12.968;2023-05-14T08:44:10;21.60;99.90
34135;DHT22;20410;55.578;12.968;2023-05-14T08:46:37;21.70;99.90
34135;DHT22;20410;55.578;12.968;2023-05-14T08:51:38;21.50;99.90
34135;DHT22;20410;55.578;12.968;2023-05-14T08:54:05;21.40;99.90
34135;DHT22;20410;55.578;12.968;2023-05-14T08:56:31;21.50;99.90
34135;DHT22;20410;55.578;12.968;2023-05-14T08:58:58;21.40;99.90
34135;DHT22;20410;55.578;12.968;2023-05-14T09:01:24;21.40;99.90
34135;DHT22;20410;55.578;12.968;2023-05-14T09:03:51;21.30;99.90
34135;DHT22;20410;55.578;12.968;2023-05-14T09:06:18;21.20;99.90
34135;DHT22;20410;55.578;12.968;2023-05-14T09:08:45;21.20;99.90
34135;DHT22;20410;55.578;12.968;2023-05-14T09:11:11;21.10;99.90
34135;DHT22;20410;55.578;12.968;2023-05-14T09:13:37;21.00;99.90
34135;DHT22;20410;55.578;12.968;2023-05-14T09:16:03;21.10;99.90
34135;DHT22;20410;55.578;12.968;2023-05-14T09:18:28;21.20;99.90
34135;DHT22;20410;55.578;12.968;2023-05-14T09:20:54;21.30;99.90
34135;DHT22;20410;55.578;12.968;2023-05-14T09:23:20;21.30;99.90
34135;DHT22;20410;55.578;12.968;2023-05-14T09:25:47;21.20;99.90
34135;DHT22;20410;55.578;12.968;2023-05-14T09:28:16;21.40;99.90
34135;DHT22;20410;55.578;12.968;2023-05-14T09:30:49;21.50;99.90
34135;DHT22;20410;55.578;12.968;2023-05-14T09:33:25;21.70;99.90
34135;DHT22;20410;55.578;12.968;2023-05-14T09:35:57;21.90;99.90
34135;DHT22;20410;55.578;12.968;2023-05-14T09:38:27;22.00;99.90
34135;DHT22;20410;55.578;12.968;2023-05-14T09:40:54;22.10;99.90
34135;DHT22;20410;55.578;12.968;2023-05-14T09:43:20;22.30;99.90
34135;DHT22;20410;55.578;12.968;2023-05-14T09:45:46;22.60;99.90
34135;DHT22;20410;55.578;12.968;2023-05-14T09:48:12;22.60;99.90
34135;DHT22;20410;55.578;12.968;2023-05-14T09:50:41;22.60;99.90
34135;DHT22;20410;55.578;12.968;2023-05-14T09:53:07;22.70;99.90
34135;DHT22;20410;55.578;12.968;2023-05-14T09:55:32;22.60;99.90
34135;DHT22;20410;55.578;12.968;2023-05-14T09:58:00;22.90;99.90
34135;DHT22;20410;55.578;12.968;2023-05-14T10:00:25;22.90;99.90
34135;DHT22;20410;55.578;12.968;2023-05-14T10:02:51;22.80;99.90
34135;DHT22;20410;55.578;12.968;2023-05-14T10:05:18;23.10;99.90
34135;DHT22;20410;55.578;12.968;2023-05-14T10:07:50;23.60;99.90
34135;DHT22;20410;55.578;12.968;2023-05-14T10:10:19;23.80;99.90
34135;DHT22;20410;55.578;12.968;2023-05-14T10:13:08;24.00;69.10
34135;DHT22;20410;55.578;12.968;2023-05-14T10:15:40;24.30;50.50
34135;DHT22;20410;55.578;12.968;2023-05-14T10:18:12;24.70;99.90
34135;DHT22;20410;55.578;12.968;2023-05-14T10:20:39;24.90;99.90
34135;DHT22;20410;55.578;12.968;2023-05-14T10:23:06;25.10;99.90
34135;DHT22;20410;55.578;12.968;2023-05-14T10:25:35;25.30;99.90
34135;DHT22;20410;55.578;12.968;2023-05-14T10:28:01;25.20;99.90
34135;DHT22;20410;55.578;12.968;2023-05-14T10:30:27;25.10;99.90
34135;DHT22;20410;55.578;12.968;2023-05-14T10:33:07;24.80;99.90
34135;DHT22;20410;55.578;12.968;2023-05-14T10:35:50;24.80;99.90
34135;DHT22;20410;55.578;12.968;2023-05-14T10:38:16;24.80;99.90
34135;DHT22;20410;55.578;12.968;2023-05-14T10:40:42;24.70;99.90
34135;DHT22;20410;55.578;12.968;2023-05-14T10:43:08;24.90;99.90
34135;DHT22;20410;55.578;12.968;2023-05-14T10:45:35;25.10;99.90
34135;DHT22;20410;55.578;12.968;2023-05-14T10:48:01;25.20;99.90
34135;DHT22;20410;55.578;12.968;2023-05-14T10:50:27;25.30;99.90
34135;DHT22;20410;55.578;12.968;2023-05-14T10:52:54;25.20;99.90
34135;DHT22;20410;55.578;12.968;2023-05-14T10:55:21;25.20;99.90
34135;DHT22;20410;55.578;12.968;2023-05-14T10:57:48;25.10;99.90
34135;DHT22;20410;55.578;12.968;2023-05-14T11:00:14;25.10;99.90
34135;DHT22;20410;55.578;12.968;2023-05-14T11:02:42;25.20;99.90
34135;DHT22;20410;55.578;12.968;2023-05-14T11:05:10;25.20;99.90
34135;DHT22;20410;55.578;12.968;2023-05-14T11:07:39;25.40;99.90
34135;DHT22;20410;55.578;12.968;2023-05-14T11:10:09;25.60;99.90
34135;DHT22;20410;55.578;12.968;2023-05-14T11:12:37;25.70;99.90
34135;DHT22;20410;55.578;12.968;2023-05-14T11:15:07;25.70;99.90
34135;DHT22;20410;55.578;12.968;2023-05-14T11:17:34;25.50;52.40
34135;DHT22;20410;55.578;12.968;2023-05-14T11:20:01;25.60;99.90
34135;DHT22;20410;55.578;12.968;2023-05-14T11:22:27;25.60;99.90
34135;DHT22;20410;55.578;12.968;2023-05-14T11:24:53;25.70;99.90
34135;DHT22;20410;55.578;12.968;2023-05-14T11:27:20;25.90;99.90
34135;DHT22;20410;55.578;12.968;2023-05-14T11:29:47;26.10;76.40
34135;DHT22;20410;55.578;12.968;2023-05-14T11:32:14;26.10;77.90
34135;DHT22;20410;55.578;12.968;2023-05-14T11:34:41;26.20;76.00
34135;DHT22;20410;55.578;12.968;2023-05-14T11:37:09;26.30;23.30
34135;DHT22;20410;55.578;12.968;2023-05-14T11:39:35;26.40;96.20
34135;DHT22;20410;55.578;12.968;2023-05-14T11:42:03;26.60;41.60
34135;DHT22;20410;55.578;12.968;2023-05-14T11:44:30;26.80;61.40
34135;DHT22;20410;55.578;12.968;2023-05-14T11:46:57;27.00;1.00
34135;DHT22;20410;55.578;12.968;2023-05-14T11:49:24;27.00;1.00
34135;DHT22;20410;55.578;12.968;2023-05-14T11:52:00;27.00;1.00
34135;DHT22;20410;55.578;12.968;2023-05-14T11:54:29;26.90;65.70
34135;DHT22;20410;55.578;12.968;2023-05-14T11:56:56;26.70;1.00
34135;DHT22;20410;55.578;12.968;2023-05-14T11:59:26;26.70;16.20
34135;DHT22;20410;55.578;12.968;2023-05-14T12:01:53;26.80;1.00
34135;DHT22;20410;55.578;12.968;2023-05-14T12:04:19;26.70;1.00
34135;DHT22;20410;55.578;12.968;2023-05-14T12:06:48;26.80;1.00
34135;DHT22;20410;55.578;12.968;2023-05-14T12:09:21;26.90;21.00
34135;DHT22;20410;55.578;12.968;2023-05-14T12:11:48;27.00;1.00
34135;DHT22;20410;55.578;12.968;2023-05-14T12:14:22;27.30;1.00
34135;DHT22;20410;55.578;12.968;2023-05-14T12:16:49;27.00;1.00
34135;DHT22;20410;55.578;12.968;2023-05-14T12:19:17;27.10;1.00
34135;DHT22;20410;55.578;12.968;2023-05-14T12:21:44;27.20;1.00
34135;DHT22;20410;55.578;12.968;2023-05-14T12:24:15;27.20;1.00
34135;DHT22;20410;55.578;12.968;2023-05-14T12:26:48;27.20;1.00
34135;DHT22;20410;55.578;12.968;2023-05-14T12:29:15;27.10;99.90
34135;DHT22;20410;55.578;12.968;2023-05-14T12:31:48;27.10;99.90
34135;DHT22;20410;55.578;12.968;2023-05-14T12:34:14;27.00;99.90
34135;DHT22;20410;55.578;12.968;2023-05-14T12:36:40;27.00;1.00
34135;DHT22;20410;55.578;12.968;2023-05-14T12:39:06;27.10;1.00
34135;DHT22;20410;55.578;12.968;2023-05-14T12:41:32;27.20;1.00
34135;DHT22;20410;55.578;12.968;2023-05-14T12:43:59;27.30;99.90
34135;DHT22;20410;55.578;12.968;2023-05-14T12:46:25;27.20;99.90
34135;DHT22;20410;55.578;12.968;2023-05-14T12:48:55;27.30;99.90
34135;DHT22;20410;55.578;12.968;2023-05-14T12:51:21;27.30;99.90
34135;DHT22;20410;55.578;12.968;2023-05-14T12:53:47;27.10;99.90
34135;DHT22;20410;55.578;12.968;2023-05-14T12:56:13;27.30;99.90
34135;DHT22;20410;55.578;12.968;2023-05-14T12:58:39;27.30;99.90
34135;DHT22;20410;55.578;12.968;2023-05-14T13:01:05;27.40;99.90
34135;DHT22;20410;55.578;12.968;2023-05-14T13:03:31;27.50;45.30
34135;DHT22;20410;55.578;12.968;2023-05-14T13:05:56;27.50;1.00
34135;DHT22;20410;55.578;12.968;2023-05-14T13:08:23;27.30;1.00
34135;DHT22;20410;55.578;12.968;2023-05-14T13:10:55;26.80;1.00
34135;DHT22;20410;55.578;12.968;2023-05-14T13:13:21;26.80;99.90
34135;DHT22;20410;55.578;12.968;2023-05-14T13:15:47;26.90;99.90
34135;DHT22;20410;55.578;12.968;2023-05-14T13:18:13;27.10;1.00
34135;DHT22;20410;55.578;12.968;2023-05-14T13:20:39;27.30;39.20
34135;DHT22;20410;55.578;12.968;2023-05-14T13:23:05;27.30;1.00
34135;DHT22;20410;55.578;12.968;2023-05-14T13:25:31;27.30;1.00
34135;DHT22;20410;55.578;12.968;2023-05-14T13:27:56;27.30;47.00
34135;DHT22;20410;55.578;12.968;2023-05-14T13:30:22;27.40;1.00
34135;DHT22;20410;55.578;12.968;2023-05-14T13:32:48;27.40;1.00
34135;DHT22;20410;55.578;12.968;2023-05-14T13:35:13;27.40;1.00
34135;DHT22;20410;55.578;12.968;2023-05-14T13:37:39;27.20;1.00
34135;DHT22;20410;55.578;12.968;2023-05-14T13:40:05;27.10;1.00
34135;DHT22;20410;55.578;12.968;2023-05-14T13:42:34;27.30;1.00
34135;DHT22;20410;55.578;12.968;2023-05-14T13:45:00;27.20;1.00
34135;DHT22;20410;55.578;12.968;2023-05-14T13:47:26;27.30;1.00
34135;DHT22;20410;55.578;12.968;2023-05-14T13:49:52;27.60;1.00
34135;DHT22;20410;55.578;12.968;2023-05-14T13:52:18;27.70;1.00
34135;DHT22;20410;55.578;12.968;2023-05-14T13:54:44;27.70;1.00
34135;DHT22;20410;55.578;12.968;2023-05-14T13:57:09;27.90;1.00
34135;DHT22;20410;55.578;12.968;2023-05-14T13:59:35;27.50;1.00
34135;DHT22;20410;55.578;12.968;2023-05-14T14:02:01;27.40;1.00
34135;DHT22;20410;55.578;12.968;2023-05-14T14:04:26;27.30;1.00
34135;DHT22;20410;55.578;12.968;2023-05-14T14:06:54;27.40;1.00
34135;DHT22;20410;55.578;12.968;2023-05-14T14:09:19;27.30;1.00
34135;DHT22;20410;55.578;12.968;2023-05-14T14:11:45;27.60;1.00
34135;DHT22;20410;55.578;12.968;2023-05-14T14:14:11;27.80;1.00
34135;DHT22;20410;55.578;12.968;2023-05-14T14:16:37;27.80;1.00
34135;DHT22;20410;55.578;12.968;2023-05-14T14:19:02;27.80;1.00
34135;DHT22;20410;55.578;12.968;2023-05-14T14:21:28;27.70;1.00
34135;DHT22;20410;55.578;12.968;2023-05-14T14:23:54;27.80;1.00
34135;DHT22;20410;55.578;12.968;2023-05-14T14:26:19;27.80;1.00
34135;DHT22;20410;55.578;12.968;2023-05-14T14:28:45;27.80;1.00
34135;DHT22;20410;55.578;12.968;2023-05-14T14:31:11;27.80;1.00
34135;DHT22;20410;55.578;12.968;2023-05-14T14:33:37;27.80;1.00
34135;DHT22;20410;55.578;12.968;2023-05-14T14:36:03;27.60;1.00
34135;DHT22;20410;55.578;12.968;2023-05-14T14:38:29;27.50;1.00
34135;DHT22;20410;55.578;12.968;2023-05-14T14:40:54;27.40;1.00
34135;DHT22;20410;55.578;12.968;2023-05-14T14:43:21;27.20;1.00
34135;DHT22;20410;55.578;12.968;2023-05-14T14:45:46;27.20;1.00
34135;DHT22;20410;55.578;12.968;2023-05-14T14:48:30;27.20;1.00
34135;DHT22;20410;55.578;12.968;2023-05-14T14:50:56;27.20;1.00
34135;DHT22;20410;55.578;12.968;2023-05-14T14:53:22;27.30;1.00
34135;DHT22;20410;55.578;12.968;2023-05-14T14:55:49;27.40;1.00
34135;DHT22;20410;55.578;12.968;2023-05-14T14:58:15;27.50;1.00
34135;DHT22;20410;55.578;12.968;2023-05-14T15:00:41;27.50;1.00
34135;DHT22;20410;55.578;12.968;2023-05-14T15:03:06;27.50;1.00
34135;DHT22;20410;55.578;12.968;2023-05-14T15:05:34;27.50;99.90
34135;DHT22;20410;55.578;12.968;2023-05-14T15:07:59;27.20;1.00
34135;DHT22;20410;55.578;12.968;2023-05-14T15:10:27;27.10;1.00
34135;DHT22;20410;55.578;12.968;2023-05-14T15:12:56;27.00;1.00
34135;DHT22;20410;55.578;12.968;2023-05-14T15:15:22;26.90;1.00
34135;DHT22;20410;55.578;12.968;2023-05-14T15:17:48;27.00;1.00
34135;DHT22;20410;55.578;12.968;2023-05-14T15:20:13;27.00;1.00
34135;DHT22;20410;55.578;12.968;2023-05-14T15:22:39;27.00;1.00
34135;DHT22;20410;55.578;12.968;2023-05-14T15:25:05;27.00;1.00
34135;DHT22;20410;55.578;12.968;2023-05-14T15:27:30;27.00;1.00
34135;DHT22;20410;55.578;12.968;2023-05-14T15:29:56;26.80;1.00
34135;DHT22;20410;55.578;12.968;2023-05-14T15:32:22;26.70;1.00